sensor_id;sensor_type;location;lat;lon;timestamp;pressure;altitude;pressure_sealevel;temperature;humidity
62402;BME280;48440;51.224;22.506;2023-07-22T00:02:16;98631.75;;;18.23;76.98
62402;BME280;48440;51.224;22.506;2023-07-22T00:04:41;98626.09;;;18.20;77.05
62402;BME280;48440;51.224;22.506;2023-07-22T00:07:07;98625.78;;;18.21;76.77
62402;BME280;48440;51.224;22.506;2023-07-22T00:09:33;98628.84;;;18.20;76.95
62402;BME280;48440;51.224;22.506;2023-07-22T00:11:59;98626.59;;;18.22;76.88
62402;BME280;48440;51.224;22.506;2023-07-22T00:14:24;98625.78;;;18.21;76.95
62402;BME280;48440;51.224;22.506;2023-07-22T00:16:50;98621.09;;;18.22;76.98
62402;BME280;48440;51.224;22.506;2023-07-22T00:19:15;98615.91;;;18.20;76.80
62402;BME280;48440;51.224;22.506;2023-07-22T00:21:41;98617.22;;;18.23;76.66
62402;BME280;48440;51.224;22.506;2023-07-22T00:24:06;98608.19;;;18.22;76.82
62402;BME280;48440;51.224;22.506;2023-07-22T00:26:31;98612.53;;;18.23;76.68
62402;BME280;48440;51.224;22.506;2023-07-22T00:28:57;98608.81;;;18.19;76.70
62402;BME280;48440;51.224;22.506;2023-07-22T00:31:22;98611.09;;;18.17;76.57
62402;BME280;48440;51.224;22.506;2023-07-22T00:33:48;98599.31;;;18.17;76.75
62402;BME280;48440;51.224;22.506;2023-07-22T00:36:13;98602.88;;;18.17;76.84
62402;BME280;48440;51.224;22.506;2023-07-22T00:38:39;98598.19;;;18.18;76.64
62402;BME280;48440;51.224;22.506;2023-07-22T00:41:05;98596.25;;;18.18;76.52
62402;BME280;48440;51.224;22.506;2023-07-22T00:43:32;98591.88;;;18.17;76.45
62402;BME280;48440;51.224;22.506;2023-07-22T00:45:58;98593.81;;;18.17;76.31
62402;BME280;48440;51.224;22.506;2023-07-22T00:48:23;98596.06;;;18.15;76.83
62402;BME280;48440;51.224;22.506;2023-07-22T00:50:49;98600.25;;;18.12;76.65
62402;BME280;48440;51.224;22.506;2023-07-22T00:53:15;98589.59;;;18.11;76.54
62402;BME280;48440;51.224;22.506;2023-07-22T00:55:44;98593.00;;;18.08;76.62
62402;BME280;48440;51.224;22.506;2023-07-22T00:58:10;98595.25;;;18.06;76.96
62402;BME280;48440;51.224;22.506;2023-07-22T01:00:36;98600.25;;;18.04;77.35
62402;BME280;48440;51.224;22.506;2023-07-22T01:03:02;98593.44;;;18.01;77.47
62402;BME280;48440;51.224;22.506;2023-07-22T01:05:28;98598.31;;;18.04;77.33
62402;BME280;48440;51.224;22.506;2023-07-22T01:07:54;98591.69;;;18.05;77.48
62402;BME280;48440;51.224;22.506;2023-07-22T01:10:21;98600.72;;;18.06;77.34
62402;BME280;48440;51.224;22.506;2023-07-22T01:12:46;98588.63;;;18.07;77.65
62402;BME280;48440;51.224;22.506;2023-07-22T01:15:12;98596.84;;;18.07;77.85
62402;BME280;48440;51.224;22.506;2023-07-22T01:17:37;98592.19;;;18.07;77.50
62402;BME280;48440;51.224;22.506;2023-07-22T01:20:04;98586.38;;;18.09;77.26
62402;BME280;48440;51.224;22.506;2023-07-22T01:22:31;98585.56;;;18.08;76.78
62402;BME280;48440;51.224;22.506;2023-07-22T01:24:58;98573.78;;;18.08;77.04
62402;BME280;48440;51.224;22.506;2023-07-22T01:27:24;98578.94;;;18.09;77.00
62402;BME280;48440;51.224;22.506;2023-07-22T01:29:52;98575.72;;;18.07;76.95
62402;BME280;48440;51.224;22.506;2023-07-22T01:32:19;98582.66;;;18.05;77.41
62402;BME280;48440;51.224;22.506;2023-07-22T01:34:45;98573.59;;;18.04;77.45
62402;BME280;48440;51.224;22.506;2023-07-22T01:37:11;98574.56;;;18.00;77.27
62402;BME280;48440;51.224;22.506;2023-07-22T01:39:36;98576.97;;;18.01;77.73
62402;BME280;48440;51.224;22.506;2023-07-22T01:42:02;98573.75;;;17.99;78.18
62402;BME280;48440;51.224;22.506;2023-07-22T01:44:28;98572.13;;;17.98;78.73
62402;BME280;48440;51.224;22.506;2023-07-22T01:46:53;98566.63;;;17.98;78.38
62402;BME280;48440;51.224;22.506;2023-07-22T01:49:19;98559.03;;;17.95;78.21
62402;BME280;48440;51.224;22.506;2023-07-22T01:51:44;98554.84;;;17.97;78.42
62402;BME280;48440;51.224;22.506;2023-07-22T01:54:11;98555.97;;;17.96;78.66
62402;BME280;48440;51.224;22.506;2023-07-22T01:56:38;98563.41;;;17.96;78.63
62402;BME280;48440;51.224;22.506;2023-07-22T01:59:04;98550.50;;;17.96;78.06
62402;BME280;48440;51.224;22.506;2023-07-22T02:01:30;98559.84;;;17.95;78.28
62402;BME280;48440;51.224;22.506;2023-07-22T02:03:56;98548.88;;;17.95;78.40
62402;BME280;48440;51.224;22.506;2023-07-22T02:06:22;98553.06;;;17.93;78.01
62402;BME280;48440;51.224;22.506;2023-07-22T02:08:47;98553.56;;;17.95;77.96
62402;BME280;48440;51.224;22.506;2023-07-22T02:11:13;98557.44;;;17.94;78.31
62402;BME280;48440;51.224;22.506;2023-07-22T02:13:38;98560.53;;;17.92;78.26
62402;BME280;48440;51.224;22.506;2023-07-22T02:16:04;98556.63;;;17.93;77.99
62402;BME280;48440;51.224;22.506;2023-07-22T02:18:29;98563.72;;;17.94;78.09
62402;BME280;48440;51.224;22.506;2023-07-22T02:20:55;98568.75;;;17.92;78.04
62402;BME280;48440;51.224;22.506;2023-07-22T02:23:22;98560.66;;;17.87;78.24
62402;BME280;48440;51.224;22.506;2023-07-22T02:25:49;98569.72;;;17.88;78.26
62402;BME280;48440;51.224;22.506;2023-07-22T02:28:15;98585.38;;;17.87;78.98
62402;BME280;48440;51.224;22.506;2023-07-22T02:30:55;98603.78;;;17.87;79.44
62402;BME280;48440;51.224;22.506;2023-07-22T02:33:27;98618.94;;;17.84;80.10
62402;BME280;48440;51.224;22.506;2023-07-22T02:35:56;98634.59;;;17.84;80.10
62402;BME280;48440;51.224;22.506;2023-07-22T02:38:22;98639.59;;;17.82;80.71
62402;BME280;48440;51.224;22.506;2023-07-22T02:40:47;98639.09;;;17.80;80.91
62402;BME280;48440;51.224;22.506;2023-07-22T02:43:13;98632.63;;;17.76;82.11
62402;BME280;48440;51.224;22.506;2023-07-22T02:45:39;98625.50;;;17.75;82.31
62402;BME280;48440;51.224;22.506;2023-07-22T02:48:04;98632.75;;;17.71;83.30
62402;BME280;48440;51.224;22.506;2023-07-22T02:50:31;98622.09;;;17.69;83.43
62402;BME280;48440;51.224;22.506;2023-07-22T02:52:56;98628.25;;;17.66;83.77
62402;BME280;48440;51.224;22.506;2023-07-22T02:55:22;98627.72;;;17.64;84.36
62402;BME280;48440;51.224;22.506;2023-07-22T02:57:48;98625.50;;;17.66;84.39
62402;BME280;48440;51.224;22.506;2023-07-22T03:00:15;98629.50;;;17.69;84.44
62402;BME280;48440;51.224;22.506;2023-07-22T03:02:52;98623.72;;;17.70;84.35
62402;BME280;48440;51.224;22.506;2023-07-22T03:05:19;98625.66;;;17.70;84.59
62402;BME280;48440;51.224;22.506;2023-07-22T03:07:44;98630.00;;;17.71;84.52
62402;BME280;48440;51.224;22.506;2023-07-22T03:10:10;98632.56;;;17.67;84.26
62402;BME280;48440;51.224;22.506;2023-07-22T03:12:36;98620.47;;;17.68;84.15
62402;BME280;48440;51.224;22.506;2023-07-22T03:15:02;98616.47;;;17.66;84.08
62402;BME280;48440;51.224;22.506;2023-07-22T03:17:34;98613.50;;;17.62;84.45
62402;BME280;48440;51.224;22.506;2023-07-22T03:20:00;98588.81;;;17.62;84.57
62402;BME280;48440;51.224;22.506;2023-07-22T03:22:26;98585.47;;;17.65;84.87
62402;BME280;48440;51.224;22.506;2023-07-22T03:24:51;98578.34;;;17.64;84.95
62402;BME280;48440;51.224;22.506;2023-07-22T03:27:17;98579.19;;;17.65;84.66
62402;BME280;48440;51.224;22.506;2023-07-22T03:29:43;98577.53;;;17.63;84.69
62402;BME280;48440;51.224;22.506;2023-07-22T03:32:08;98560.78;;;17.65;85.09
62402;BME280;48440;51.224;22.506;2023-07-22T03:34:35;98564.78;;;17.68;85.02
62402;BME280;48440;51.224;22.506;2023-07-22T03:37:00;98556.56;;;17.68;85.16
62402;BME280;48440;51.224;22.506;2023-07-22T03:39:26;98556.25;;;17.69;84.87
62402;BME280;48440;51.224;22.506;2023-07-22T03:41:52;98556.56;;;17.68;85.29
62402;BME280;48440;51.224;22.506;2023-07-22T03:44:17;98565.16;;;17.66;85.29
62402;BME280;48440;51.224;22.506;2023-07-22T03:46:42;98569.81;;;17.66;85.54
62402;BME280;48440;51.224;22.506;2023-07-22T03:49:08;98567.53;;;17.68;85.78
62402;BME280;48440;51.224;22.506;2023-07-22T03:51:33;98558.19;;;17.69;85.90
62402;BME280;48440;51.224;22.506;2023-07-22T03:53:59;98553.50;;;17.69;85.51
62402;BME280;48440;51.224;22.506;2023-07-22T03:56:25;98557.88;;;17.70;85.61
62402;BME280;48440;51.224;22.506;2023-07-22T03:58:51;98557.88;;;17.70;85.85
62402;BME280;48440;51.224;22.506;2023-07-22T04:01:16;98559.16;;;17.73;85.86
62402;BME280;48440;51.224;22.506;2023-07-22T04:03:42;98553.69;;;17.73;85.42
62402;BME280;48440;51.224;22.506;2023-07-22T04:06:07;98542.38;;;17.74;85.52
62402;BME280;48440;51.224;22.506;2023-07-22T04:08:33;98537.72;;;17.75;85.67
62402;BME280;48440;51.224;22.506;2023-07-22T04:10:58;98529.16;;;17.76;85.65
62402;BME280;48440;51.224;22.506;2023-07-22T04:13:25;98543.69;;;17.77;85.56
62402;BME280;48440;51.224;22.506;2023-07-22T04:15:52;98535.13;;;17.78;85.79
62402;BME280;48440;51.224;22.506;2023-07-22T04:18:19;98540.63;;;17.78;85.87
62402;BME280;48440;51.224;22.506;2023-07-22T04:20:46;98537.88;;;17.78;85.70
62402;BME280;48440;51.224;22.506;2023-07-22T04:23:12;98539.31;;;17.76;85.53
62402;BME280;48440;51.224;22.506;2023-07-22T04:25:41;98542.38;;;17.74;85.79
62402;BME280;48440;51.224;22.506;2023-07-22T04:28:07;98542.72;;;17.73;86.18
62402;BME280;48440;51.224;22.506;2023-07-22T04:30:33;98536.91;;;17.74;86.12
62402;BME280;48440;51.224;22.506;2023-07-22T04:32:59;98529.97;;;17.77;86.10
62402;BME280;48440;51.224;22.506;2023-07-22T04:35:24;98540.31;;;17.80;86.41
62402;BME280;48440;51.224;22.506;2023-07-22T04:37:50;98533.88;;;17.84;86.84
62402;BME280;48440;51.224;22.506;2023-07-22T04:40:15;98530.47;;;17.87;86.62
62402;BME280;48440;51.224;22.506;2023-07-22T04:42:43;98539.84;;;17.86;86.26
62402;BME280;48440;51.224;22.506;2023-07-22T04:45:10;98537.91;;;17.87;86.61
62402;BME280;48440;51.224;22.506;2023-07-22T04:47:36;98529.34;;;17.88;86.26
62402;BME280;48440;51.224;22.506;2023-07-22T04:50:02;98542.75;;;17.90;86.26
62402;BME280;48440;51.224;22.506;2023-07-22T04:52:29;98539.19;;;17.89;86.59
62402;BME280;48440;51.224;22.506;2023-07-22T04:54:54;98542.75;;;17.90;86.38
62402;BME280;48440;51.224;22.506;2023-07-22T04:57:21;98542.59;;;17.86;86.64
62402;BME280;48440;51.224;22.506;2023-07-22T04:59:46;98538.41;;;17.89;85.96
62402;BME280;48440;51.224;22.506;2023-07-22T05:02:12;98543.25;;;17.92;86.11
62402;BME280;48440;51.224;22.506;2023-07-22T05:04:38;98548.56;;;17.97;86.45
62402;BME280;48440;51.224;22.506;2023-07-22T05:07:04;98552.44;;;17.96;86.63
62402;BME280;48440;51.224;22.506;2023-07-22T05:09:29;98551.94;;;17.94;86.24
62402;BME280;48440;51.224;22.506;2023-07-22T05:11:55;98558.91;;;17.91;85.99
62402;BME280;48440;51.224;22.506;2023-07-22T05:14:20;98571.00;;;17.90;86.30
62402;BME280;48440;51.224;22.506;2023-07-22T05:16:46;98571.50;;;17.92;86.19
62402;BME280;48440;51.224;22.506;2023-07-22T05:19:11;98574.88;;;17.98;86.25
62402;BME280;48440;51.224;22.506;2023-07-22T05:21:37;98585.38;;;18.05;85.99
62402;BME280;48440;51.224;22.506;2023-07-22T05:24:02;98594.28;;;18.10;86.14
62402;BME280;48440;51.224;22.506;2023-07-22T05:26:28;98601.72;;;18.18;86.25
62402;BME280;48440;51.224;22.506;2023-07-22T05:28:54;98629.50;;;18.25;85.63
62402;BME280;48440;51.224;22.506;2023-07-22T05:31:19;98636.78;;;18.30;86.11
62402;BME280;48440;51.224;22.506;2023-07-22T05:33:45;98631.47;;;18.34;86.43
62402;BME280;48440;51.224;22.506;2023-07-22T05:36:10;98636.94;;;18.34;86.07
62402;BME280;48440;51.224;22.506;2023-07-22T05:38:36;98630.00;;;18.36;86.55
62402;BME280;48440;51.224;22.506;2023-07-22T05:41:01;98626.13;;;18.37;85.79
62402;BME280;48440;51.224;22.506;2023-07-22T05:43:27;98638.72;;;18.47;85.14
62402;BME280;48440;51.224;22.506;2023-07-22T05:45:52;98640.25;;;18.70;84.57
62402;BME280;48440;51.224;22.506;2023-07-22T05:48:18;98624.97;;;19.16;83.21
62402;BME280;48440;51.224;22.506;2023-07-22T05:50:43;98620.50;;;19.58;79.58
62402;BME280;48440;51.224;22.506;2023-07-22T05:53:09;98605.09;;;19.95;79.46
62402;BME280;48440;51.224;22.506;2023-07-22T05:55:35;98618.91;;;20.37;78.71
62402;BME280;48440;51.224;22.506;2023-07-22T05:58:02;98631.56;;;20.58;76.30
62402;BME280;48440;51.224;22.506;2023-07-22T06:00:32;98627.81;;;20.42;75.62
62402;BME280;48440;51.224;22.506;2023-07-22T06:02:58;98618.16;;;20.27;74.50
62402;BME280;48440;51.224;22.506;2023-07-22T06:05:23;98614.38;;;20.11;75.87
62402;BME280;48440;51.224;22.506;2023-07-22T06:07:49;98633.59;;;19.99;75.87
62402;BME280;48440;51.224;22.506;2023-07-22T06:10:14;98640.09;;;19.94;76.31
62402;BME280;48440;51.224;22.506;2023-07-22T06:12:40;98652.97;;;20.32;75.89
62402;BME280;48440;51.224;22.506;2023-07-22T06:15:06;98649.22;;;20.37;76.08
62402;BME280;48440;51.224;22.506;2023-07-22T06:17:32;98646.91;;;20.18;76.30
62402;BME280;48440;51.224;22.506;2023-07-22T06:19:58;98650.63;;;19.92;77.43
62402;BME280;48440;51.224;22.506;2023-07-22T06:22:24;98648.38;;;19.86;77.92
62402;BME280;48440;51.224;22.506;2023-07-22T06:24:49;98651.28;;;19.89;78.36
62402;BME280;48440;51.224;22.506;2023-07-22T06:27:15;98647.81;;;20.01;78.32
62402;BME280;48440;51.224;22.506;2023-07-22T06:29:41;98656.75;;;19.98;78.12
62402;BME280;48440;51.224;22.506;2023-07-22T06:32:07;98650.69;;;20.34;77.20
62402;BME280;48440;51.224;22.506;2023-07-22T06:34:32;98653.97;;;20.78;74.95
62402;BME280;48440;51.224;22.506;2023-07-22T06:36:58;98655.91;;;21.31;73.38
62402;BME280;48440;51.224;22.506;2023-07-22T06:39:24;98651.84;;;21.74;71.24
62402;BME280;48440;51.224;22.506;2023-07-22T06:41:49;98645.81;;;22.05;70.05
62402;BME280;48440;51.224;22.506;2023-07-22T06:44:15;98652.13;;;22.29;69.14
62402;BME280;48440;51.224;22.506;2023-07-22T06:46:41;98634.09;;;22.48;68.40
62402;BME280;48440;51.224;22.506;2023-07-22T06:49:07;98640.84;;;22.75;66.84
62402;BME280;48440;51.224;22.506;2023-07-22T06:51:32;98644.00;;;23.01;66.07
62402;BME280;48440;51.224;22.506;2023-07-22T06:53:58;98647.00;;;23.24;65.17
62402;BME280;48440;51.224;22.506;2023-07-22T06:56:24;98654.75;;;23.18;63.25
62402;BME280;48440;51.224;22.506;2023-07-22T06:58:51;98654.28;;;22.88;63.47
62402;BME280;48440;51.224;22.506;2023-07-22T07:01:17;98665.38;;;22.76;64.87
62402;BME280;48440;51.224;22.506;2023-07-22T07:03:43;98663.91;;;22.79;65.65
62402;BME280;48440;51.224;22.506;2023-07-22T07:06:08;98663.66;;;23.12;64.12
62402;BME280;48440;51.224;22.506;2023-07-22T07:08:34;98667.13;;;23.37;63.97
62402;BME280;48440;51.224;22.506;2023-07-22T07:11:00;98661.19;;;23.22;62.89
62402;BME280;48440;51.224;22.506;2023-07-22T07:13:26;98671.09;;;22.95;64.36
62402;BME280;48440;51.224;22.506;2023-07-22T07:15:52;98671.59;;;22.73;64.15
62402;BME280;48440;51.224;22.506;2023-07-22T07:18:18;98675.22;;;22.37;64.99
62402;BME280;48440;51.224;22.506;2023-07-22T07:20:44;98679.97;;;22.00;67.01
62402;BME280;48440;51.224;22.506;2023-07-22T07:23:10;98671.56;;;22.33;66.79
62402;BME280;48440;51.224;22.506;2023-07-22T07:25:36;98670.84;;;22.60;66.71
62402;BME280;48440;51.224;22.506;2023-07-22T07:28:03;98667.63;;;22.98;65.75
62402;BME280;48440;51.224;22.506;2023-07-22T07:30:29;98664.03;;;23.54;65.16
62402;BME280;48440;51.224;22.506;2023-07-22T07:32:54;98670.84;;;23.88;63.39
62402;BME280;48440;51.224;22.506;2023-07-22T07:35:20;98666.28;;;23.80;62.19
62402;BME280;48440;51.224;22.506;2023-07-22T07:37:45;98670.22;;;23.94;61.60
62402;BME280;48440;51.224;22.506;2023-07-22T07:40:11;98671.63;;;24.20;60.04
62402;BME280;48440;51.224;22.506;2023-07-22T07:42:37;98664.09;;;24.20;59.82
62402;BME280;48440;51.224;22.506;2023-07-22T07:45:03;98667.09;;;24.27;58.75
62402;BME280;48440;51.224;22.506;2023-07-22T07:47:28;98666.06;;;24.20;60.04
62402;BME280;48440;51.224;22.506;2023-07-22T07:49:54;98673.97;;;24.33;58.82
62402;BME280;48440;51.224;22.506;2023-07-22T07:52:19;98667.13;;;24.47;58.17
62402;BME280;48440;51.224;22.506;2023-07-22T07:54:45;98668.97;;;24.58;56.31
62402;BME280;48440;51.224;22.506;2023-07-22T07:57:10;98663.78;;;24.57;56.22
62402;BME280;48440;51.224;22.506;2023-07-22T07:59:36;98670.22;;;24.26;56.70
62402;BME280;48440;51.224;22.506;2023-07-22T08:02:01;98686.47;;;24.12;58.05
62402;BME280;48440;51.224;22.506;2023-07-22T08:04:28;98667.25;;;24.34;59.14
62402;BME280;48440;51.224;22.506;2023-07-22T08:06:53;98682.38;;;24.37;59.64
62402;BME280;48440;51.224;22.506;2023-07-22T08:09:18;98695.25;;;24.14;59.91
62402;BME280;48440;51.224;22.506;2023-07-22T08:11:45;98693.63;;;23.81;60.73
62402;BME280;48440;51.224;22.506;2023-07-22T08:14:11;98693.00;;;23.56;60.93
62402;BME280;48440;51.224;22.506;2023-07-22T08:16:37;98695.50;;;23.77;59.81
62402;BME280;48440;51.224;22.506;2023-07-22T08:19:02;98689.75;;;24.17;58.68
62402;BME280;48440;51.224;22.506;2023-07-22T08:21:29;98686.13;;;24.29;58.72
62402;BME280;48440;51.224;22.506;2023-07-22T08:23:54;98694.34;;;24.10;57.36
62402;BME280;48440;51.224;22.506;2023-07-22T08:26:20;98696.59;;;24.04;57.80
62402;BME280;48440;51.224;22.506;2023-07-22T08:28:47;98707.19;;;24.18;58.37
62402;BME280;48440;51.224;22.506;2023-07-22T08:31:13;98701.41;;;24.39;58.80
62402;BME280;48440;51.224;22.506;2023-07-22T08:33:38;98697.63;;;24.82;57.68
62402;BME280;48440;51.224;22.506;2023-07-22T08:36:04;98700.97;;;24.72;57.81
62402;BME280;48440;51.224;22.506;2023-07-22T08:38:30;98706.78;;;24.31;56.92
62402;BME280;48440;51.224;22.506;2023-07-22T08:40:56;98702.94;;;23.89;58.31
62402;BME280;48440;51.224;22.506;2023-07-22T08:43:22;98713.91;;;23.69;58.30
62402;BME280;48440;51.224;22.506;2023-07-22T08:45:52;98712.38;;;23.44;59.86
62402;BME280;48440;51.224;22.506;2023-07-22T08:48:17;98715.47;;;23.27;59.74
62402;BME280;48440;51.224;22.506;2023-07-22T08:50:52;98709.63;;;23.16;61.07
62402;BME280;48440;51.224;22.506;2023-07-22T08:53:18;98714.72;;;23.14;60.93
62402;BME280;48440;51.224;22.506;2023-07-22T08:55:46;98709.00;;;23.07;60.10
62402;BME280;48440;51.224;22.506;2023-07-22T08:58:13;98705.09;;;23.24;59.98
62402;BME280;48440;51.224;22.506;2023-07-22T09:00:39;98712.81;;;23.30;60.41
62402;BME280;48440;51.224;22.506;2023-07-22T09:03:05;98718.69;;;23.29;59.85
62402;BME280;48440;51.224;22.506;2023-07-22T09:08:08;98726.00;;;23.21;58.49
62402;BME280;48440;51.224;22.506;2023-07-22T09:10:34;98721.03;;;23.43;58.33
62402;BME280;48440;51.224;22.506;2023-07-22T09:13:03;98721.78;;;23.83;56.68
62402;BME280;48440;51.224;22.506;2023-07-22T09:15:34;98728.69;;;24.05;56.26
62402;BME280;48440;51.224;22.506;2023-07-22T09:18:02;98733.78;;;24.34;55.56
62402;BME280;48440;51.224;22.506;2023-07-22T09:20:32;98725.09;;;24.20;55.53
62402;BME280;48440;51.224;22.506;2023-07-22T09:23:00;98727.94;;;23.92;56.43
62402;BME280;48440;51.224;22.506;2023-07-22T09:25:27;98726.78;;;23.62;56.76
62402;BME280;48440;51.224;22.506;2023-07-22T09:27:56;98730.59;;;23.45;57.88
62402;BME280;48440;51.224;22.506;2023-07-22T09:30:34;98733.56;;;23.37;58.47
62402;BME280;48440;51.224;22.506;2023-07-22T09:33:21;98740.63;;;23.78;57.90
62402;BME280;48440;51.224;22.506;2023-07-22T09:35:51;98735.56;;;24.27;56.17
62402;BME280;48440;51.224;22.506;2023-07-22T09:38:35;98713.66;;;24.73;56.05
62402;BME280;48440;51.224;22.506;2023-07-22T09:41:08;98723.31;;;25.14;57.06
62402;BME280;48440;51.224;22.506;2023-07-22T09:43:46;98738.84;;;24.99;55.74
62402;BME280;48440;51.224;22.506;2023-07-22T09:46:17;98743.78;;;24.55;55.50
62402;BME280;48440;51.224;22.506;2023-07-22T09:48:47;98746.31;;;24.28;55.78
62402;BME280;48440;51.224;22.506;2023-07-22T09:51:15;98749.50;;;24.15;55.30
62402;BME280;48440;51.224;22.506;2023-07-22T09:53:51;98750.84;;;24.05;57.11
62402;BME280;48440;51.224;22.506;2023-07-22T09:59:04;98745.72;;;23.91;57.31
62402;BME280;48440;51.224;22.506;2023-07-22T10:01:32;98751.09;;;24.00;57.32
62402;BME280;48440;51.224;22.506;2023-07-22T10:03:59;98758.72;;;24.03;55.65
62402;BME280;48440;51.224;22.506;2023-07-22T10:06:29;98746.19;;;23.93;55.02
62402;BME280;48440;51.224;22.506;2023-07-22T10:09:06;98745.38;;;23.93;55.05
62402;BME280;48440;51.224;22.506;2023-07-22T10:11:34;98758.25;;;24.01;55.28
62402;BME280;48440;51.224;22.506;2023-07-22T10:14:05;98766.31;;;23.90;54.86
62402;BME280;48440;51.224;22.506;2023-07-22T10:16:36;98755.75;;;23.96;55.50
62402;BME280;48440;51.224;22.506;2023-07-22T10:19:02;98755.75;;;23.96;55.87
62402;BME280;48440;51.224;22.506;2023-07-22T10:21:30;98758.25;;;24.01;55.13
62402;BME280;48440;51.224;22.506;2023-07-22T10:23:55;98763.00;;;23.85;54.40
62402;BME280;48440;51.224;22.506;2023-07-22T10:26:22;98764.28;;;23.59;53.62
62402;BME280;48440;51.224;22.506;2023-07-22T10:28:48;98773.66;;;23.43;54.17
62402;BME280;48440;51.224;22.506;2023-07-22T10:31:14;98777.28;;;23.31;54.37
62402;BME280;48440;51.224;22.506;2023-07-22T10:33:45;98784.47;;;23.48;54.68
62402;BME280;48440;51.224;22.506;2023-07-22T10:36:16;98780.25;;;23.66;54.48
62402;BME280;48440;51.224;22.506;2023-07-22T10:38:42;98784.91;;;23.90;53.49
62402;BME280;48440;51.224;22.506;2023-07-22T10:41:13;98786.84;;;23.89;54.16
62402;BME280;48440;51.224;22.506;2023-07-22T10:43:39;98787.91;;;23.85;52.89
62402;BME280;48440;51.224;22.506;2023-07-22T10:46:06;98782.59;;;23.64;53.77
62402;BME280;48440;51.224;22.506;2023-07-22T10:48:35;98789.38;;;23.66;53.86
62402;BME280;48440;51.224;22.506;2023-07-22T10:51:12;98782.94;;;23.90;53.35
62402;BME280;48440;51.224;22.506;2023-07-22T10:53:41;98785.00;;;24.09;53.39
62402;BME280;48440;51.224;22.506;2023-07-22T10:58:54;98782.09;;;24.33;52.08
62402;BME280;48440;51.224;22.506;2023-07-22T11:04:25;98777.69;;;24.48;50.60
62402;BME280;48440;51.224;22.506;2023-07-22T11:07:03;98781.34;;;24.52;50.96
62402;BME280;48440;51.224;22.506;2023-07-22T11:12:04;98787.97;;;24.16;49.36
62402;BME280;48440;51.224;22.506;2023-07-22T11:14:35;98785.72;;;24.22;48.75
62402;BME280;48440;51.224;22.506;2023-07-22T11:17:04;98785.91;;;24.29;48.67
62402;BME280;48440;51.224;22.506;2023-07-22T11:19:30;98792.38;;;24.33;49.87
62402;BME280;48440;51.224;22.506;2023-07-22T11:21:56;98788.94;;;24.24;49.31
62402;BME280;48440;51.224;22.506;2023-07-22T11:24:23;98807.16;;;24.09;49.18
62402;BME280;48440;51.224;22.506;2023-07-22T11:26:49;98803.03;;;23.87;49.96
62402;BME280;48440;51.224;22.506;2023-07-22T11:29:15;98813.59;;;23.69;50.50
62402;BME280;48440;51.224;22.506;2023-07-22T11:31:43;98808.13;;;23.57;51.05
62402;BME280;48440;51.224;22.506;2023-07-22T11:34:10;98811.94;;;23.53;50.19
62402;BME280;48440;51.224;22.506;2023-07-22T11:36:36;98811.28;;;23.72;50.47
62402;BME280;48440;51.224;22.506;2023-07-22T11:39:06;98812.22;;;23.91;49.61
62402;BME280;48440;51.224;22.506;2023-07-22T11:41:32;98811.34;;;24.03;48.82
62402;BME280;48440;51.224;22.506;2023-07-22T11:43:59;98809.28;;;24.00;49.80
62402;BME280;48440;51.224;22.506;2023-07-22T11:46:25;98820.00;;;23.86;49.58
62402;BME280;48440;51.224;22.506;2023-07-22T11:48:52;98817.69;;;23.88;50.00
62402;BME280;48440;51.224;22.506;2023-07-22T11:51:23;98821.53;;;23.99;50.51
62402;BME280;48440;51.224;22.506;2023-07-22T11:53:53;98817.34;;;24.05;49.12
62402;BME280;48440;51.224;22.506;2023-07-22T11:56:24;98823.25;;;24.03;49.01
62402;BME280;48440;51.224;22.506;2023-07-22T11:58:56;98821.63;;;24.02;48.40
62402;BME280;48440;51.224;22.506;2023-07-22T12:01:23;98809.28;;;23.84;49.06
62402;BME280;48440;51.224;22.506;2023-07-22T12:03:49;98813.19;;;23.83;48.71
62402;BME280;48440;51.224;22.506;2023-07-22T12:06:20;98809.38;;;23.88;48.17
62402;BME280;48440;51.224;22.506;2023-07-22T12:08:51;98811.88;;;23.93;46.96
62402;BME280;48440;51.224;22.506;2023-07-22T12:11:22;98819.00;;;23.78;45.65
62402;BME280;48440;51.224;22.506;2023-07-22T12:13:49;98811.53;;;23.66;45.31
62402;BME280;48440;51.224;22.506;2023-07-22T12:16:29;98807.56;;;23.80;46.26
62402;BME280;48440;51.224;22.506;2023-07-22T12:18:55;98813.03;;;23.92;45.63
62402;BME280;48440;51.224;22.506;2023-07-22T12:21:21;98813.13;;;23.95;46.03
62402;BME280;48440;51.224;22.506;2023-07-22T12:23:47;98816.31;;;23.82;45.50
62402;BME280;48440;51.224;22.506;2023-07-22T12:26:12;98811.84;;;23.77;46.75
62402;BME280;48440;51.224;22.506;2023-07-22T12:28:38;98809.88;;;23.78;46.32
62402;BME280;48440;51.224;22.506;2023-07-22T12:31:03;98805.34;;;23.85;46.10
62402;BME280;48440;51.224;22.506;2023-07-22T12:33:29;98809.09;;;23.93;46.29
62402;BME280;48440;51.224;22.506;2023-07-22T12:35:56;98815.53;;;23.97;46.40
62402;BME280;48440;51.224;22.506;2023-07-22T12:38:21;98800.31;;;23.91;46.23
62402;BME280;48440;51.224;22.506;2023-07-22T12:40:47;98817.34;;;23.89;44.44
62402;BME280;48440;51.224;22.506;2023-07-22T12:43:12;98812.75;;;23.81;43.92
62402;BME280;48440;51.224;22.506;2023-07-22T12:45:38;98817.72;;;23.76;42.87
62402;BME280;48440;51.224;22.506;2023-07-22T12:48:04;98803.06;;;23.75;42.65
62402;BME280;48440;51.224;22.506;2023-07-22T12:50:31;98806.44;;;23.68;43.37
62402;BME280;48440;51.224;22.506;2023-07-22T12:52:59;98802.34;;;23.62;45.67
62402;BME280;48440;51.224;22.506;2023-07-22T12:55:25;98797.97;;;23.61;44.13
62402;BME280;48440;51.224;22.506;2023-07-22T12:57:51;98798.78;;;23.62;43.96
62402;BME280;48440;51.224;22.506;2023-07-22T13:00:17;98804.31;;;23.62;45.00
62402;BME280;48440;51.224;22.506;2023-07-22T13:02:42;98802.34;;;23.62;45.20